createdAt,value
2019-06-26T00:02:01.068Z,101020.66
2019-06-26T00:04:30.538Z,101027.08
2019-06-26T00:07:00.020Z,101020.88
2019-06-26T00:09:30.023Z,101025.48
2019-06-26T00:11:59.565Z,101024.91
2019-06-26T00:14:29.037Z,101024.52
2019-06-26T00:16:58.500Z,101030.34
2019-06-26T00:19:27.978Z,101034.61
2019-06-26T00:21:57.447Z,101031.99
2019-06-26T00:24:26.916Z,101037.03
2019-06-26T00:26:56.387Z,101038.67
2019-06-26T00:29:25.903Z,101039.50
2019-06-26T00:31:55.371Z,101043.33
2019-06-26T00:34:24.855Z,101043.33
2019-06-26T00:36:54.395Z,101049.19
2019-06-26T00:39:23.878Z,101042.97
2019-06-26T00:41:53.393Z,101053.61
2019-06-26T00:44:22.918Z,101047.59
2019-06-26T00:46:52.392Z,101055.05
2019-06-26T00:49:21.873Z,101055.05
2019-06-26T00:51:51.491Z,101055.08
2019-06-26T00:54:20.958Z,101054.68
2019-06-26T00:56:50.479Z,101061.91
2019-06-26T00:59:19.945Z,101064.33
2019-06-26T01:01:49.493Z,101065.54
2019-06-26T01:04:20.624Z,101067.95
2019-06-26T01:06:50.078Z,101067.98
2019-06-26T01:09:19.582Z,101075.02
2019-06-26T01:11:49.051Z,101069.97
2019-06-26T01:14:22.744Z,101071.15
2019-06-26T01:17:07.121Z,101074.78
2019-06-26T01:19:49.863Z,101070.98
2019-06-26T01:22:33.098Z,101076.02
2019-06-26T01:25:05.133Z,101072.80
2019-06-26T01:27:58.839Z,101076.23
2019-06-26T01:30:31.844Z,101070.80
2019-06-26T01:33:10.305Z,101076.02
2019-06-26T01:35:49.091Z,101078.23
2019-06-26T01:38:24.334Z,101080.66
2019-06-26T01:40:56.176Z,101077.86
2019-06-26T01:43:34.911Z,101080.86
2019-06-26T01:46:12.705Z,101078.44
2019-06-26T01:48:48.295Z,101087.30
2019-06-26T01:51:28.335Z,101093.73
2019-06-26T01:53:57.801Z,101084.89
2019-06-26T01:56:56.514Z,101094.33
2019-06-26T02:02:34.677Z,101102.95
2019-06-26T02:05:09.942Z,101103.17
2019-06-26T02:07:45.975Z,101104.17
2019-06-26T02:10:17.696Z,101097.34
2019-06-26T02:12:50.267Z,101103.17
2019-06-26T02:15:21.527Z,101102.77
2019-06-26T02:17:53.424Z,101110.80
2019-06-26T02:20:22.952Z,101106.16
2019-06-26T02:22:54.451Z,101105.36
2019-06-26T02:25:23.622Z,101106.56
2019-06-26T02:27:57.704Z,101110.38
2019-06-26T02:30:27.234Z,101114.80
2019-06-26T02:32:56.747Z,101122.41
2019-06-26T02:35:26.221Z,101120.41
2019-06-26T02:37:57.224Z,101117.36
2019-06-26T02:40:26.796Z,101129.60
2019-06-26T02:42:56.244Z,101121.97
2019-06-26T02:45:28.287Z,101121.58
2019-06-26T02:47:56.921Z,101125.38
2019-06-26T02:50:26.402Z,101116.76
2019-06-26T02:52:55.861Z,101124.98
2019-06-26T02:55:25.350Z,101127.18
2019-06-26T02:57:54.871Z,101129.79
2019-06-26T03:00:24.337Z,101132.39
2019-06-26T03:02:53.892Z,101139.02
2019-06-26T03:05:25.787Z,101137.41
2019-06-26T03:07:54.613Z,101139.81
2019-06-26T03:10:25.743Z,101144.02
2019-06-26T03:12:55.220Z,101139.61
2019-06-26T03:15:24.756Z,101146.80
2019-06-26T03:17:55.846Z,101150.23
2019-06-26T03:20:30.200Z,101155.03
2019-06-26T03:22:59.668Z,101161.44
2019-06-26T03:25:29.159Z,101165.45
2019-06-26T03:27:58.882Z,101163.44
2019-06-26T03:30:28.437Z,101166.66
2019-06-26T03:32:57.976Z,101179.09
2019-06-26T03:35:27.511Z,101178.27
2019-06-26T03:37:57.010Z,101182.89
2019-06-26T03:40:26.481Z,101184.30
2019-06-26T03:42:55.974Z,101186.69
2019-06-26T03:45:27.150Z,101186.90
2019-06-26T03:47:56.644Z,101190.08
2019-06-26T03:50:26.184Z,101191.28
2019-06-26T03:52:55.764Z,101191.91
2019-06-26T03:55:25.986Z,101196.52
2019-06-26T03:58:14.805Z,101193.71
2019-06-26T04:00:45.410Z,101199.70
2019-06-26T04:03:14.956Z,101205.52
2019-06-26T04:05:44.424Z,101200.73
2019-06-26T04:08:13.965Z,101212.16
2019-06-26T04:10:43.756Z,101209.36
2019-06-26T04:13:13.356Z,101212.36
2019-06-26T04:15:43.187Z,101218.97
2019-06-26T04:18:12.743Z,101220.98
2019-06-26T04:20:42.357Z,101216.40
2019-06-26T04:23:11.832Z,101221.22
2019-06-26T04:25:41.509Z,101227.24
2019-06-26T04:28:11.060Z,101222.03
2019-06-26T04:30:40.613Z,101231.27
2019-06-26T04:33:10.071Z,101228.45
2019-06-26T04:35:39.785Z,101231.09
2019-06-26T04:38:09.209Z,101234.71
2019-06-26T04:40:38.676Z,101237.34
2019-06-26T04:43:08.168Z,101240.55
2019-06-26T04:45:37.648Z,101239.98
2019-06-26T04:48:07.595Z,101245.02
2019-06-26T04:50:37.242Z,101247.43
2019-06-26T04:53:06.790Z,101251.05
2019-06-26T04:55:36.300Z,101243.87
2019-06-26T04:58:05.919Z,101244.27
2019-06-26T05:00:35.393Z,101249.30
2019-06-26T05:03:04.940Z,101251.09
2019-06-26T05:05:39.606Z,101251.92
2019-06-26T05:08:05.679Z,101254.73
2019-06-26T05:10:35.183Z,101252.33
2019-06-26T05:13:04.787Z,101252.77
2019-06-26T05:15:34.400Z,101247.56
2019-06-26T05:18:03.902Z,101258.59
2019-06-26T05:20:33.382Z,101256.98
2019-06-26T05:23:04.451Z,101261.59
2019-06-26T05:25:35.596Z,101264.40
2019-06-26T05:28:08.247Z,101272.83
2019-06-26T05:30:36.524Z,101274.00
2019-06-26T05:33:09.679Z,101268.38
2019-06-26T05:35:39.092Z,101272.16
2019-06-26T05:38:08.584Z,101272.72
2019-06-26T05:40:39.725Z,101276.72
2019-06-26T05:43:09.237Z,101278.09
2019-06-26T05:45:38.719Z,101281.86
2019-06-26T05:48:09.889Z,101281.42
2019-06-26T05:50:45.095Z,101290.06
2019-06-26T05:53:28.631Z,101287.59
2019-06-26T05:55:57.930Z,101293.57
2019-06-26T05:58:27.437Z,101287.67
2019-06-26T06:01:01.962Z,101292.84
2019-06-26T06:03:31.415Z,101283.11
2019-06-26T06:06:00.971Z,101289.70
2019-06-26T06:08:31.991Z,101280.61
2019-06-26T06:11:01.487Z,101284.78
2019-06-26T06:13:30.983Z,101288.52
2019-06-26T06:16:00.471Z,101294.52
2019-06-26T06:18:29.928Z,101299.28
2019-06-26T06:20:59.479Z,101296.58
2019-06-26T06:23:28.989Z,101292.90
2019-06-26T06:25:58.462Z,101297.06
2019-06-26T06:28:27.979Z,101305.48
2019-06-26T06:30:57.469Z,101298.16
2019-06-26T06:33:27.005Z,101307.38
2019-06-26T06:35:56.500Z,101303.49
2019-06-26T06:38:25.969Z,101307.65
2019-06-26T06:40:55.475Z,101311.80
2019-06-26T06:43:24.936Z,101312.31
2019-06-26T06:45:54.452Z,101318.31
2019-06-26T06:48:23.925Z,101316.62
2019-06-26T06:50:53.402Z,101321.81
2019-06-26T06:53:22.891Z,101321.75
2019-06-26T06:55:52.431Z,101319.87
2019-06-26T06:58:21.919Z,101322.44
2019-06-26T07:00:51.462Z,101322.94
2019-06-26T07:03:20.985Z,101324.89
2019-06-26T07:05:50.474Z,101329.88
2019-06-26T07:08:20.063Z,101335.25
2019-06-26T07:10:49.547Z,101331.75
2019-06-26T07:13:19.043Z,101336.56
2019-06-26T07:15:48.546Z,101342.19
2019-06-26T07:18:18.140Z,101339.29
2019-06-26T07:20:47.685Z,101340.03
2019-06-26T07:23:17.193Z,101337.36
2019-06-26T07:25:46.645Z,101338.51
2019-06-26T07:28:16.173Z,101341.86
2019-06-26T07:30:45.728Z,101346.18
2019-06-26T07:33:15.235Z,101341.63
2019-06-26T07:35:44.712Z,101350.02
2019-06-26T07:38:14.216Z,101344.23
2019-06-26T07:40:43.700Z,101345.53
2019-06-26T07:43:16.347Z,101358.16
2019-06-26T07:45:44.505Z,101356.83
2019-06-26T07:48:14.017Z,101366.84
2019-06-26T07:50:43.494Z,101368.55
2019-06-26T07:53:12.982Z,101367.62
2019-06-26T07:55:42.484Z,101363.06
2019-06-26T07:58:11.964Z,101360.11
2019-06-26T08:00:41.477Z,101358.73
2019-06-26T08:03:10.945Z,101362.44
2019-06-26T08:05:42.970Z,101363.66
2019-06-26T08:08:14.533Z,101373.84
2019-06-26T08:10:43.309Z,101365.55
2019-06-26T08:13:12.817Z,101369.38
2019-06-26T08:15:42.583Z,101371.83
2019-06-26T08:18:12.070Z,101366.37
2019-06-26T08:21:00.389Z,101369.23
2019-06-26T08:23:12.904Z,101371.52
2019-06-26T08:25:42.446Z,101378.46
2019-06-26T08:28:11.949Z,101374.67
2019-06-26T08:30:41.823Z,101370.86
2019-06-26T08:33:11.336Z,101374.17
2019-06-26T08:35:40.991Z,101371.16
2019-06-26T08:38:15.356Z,101376.50
2019-06-26T08:40:41.813Z,101367.62
2019-06-26T08:43:11.267Z,101371.75
2019-06-26T08:45:40.743Z,101367.52
2019-06-26T08:48:19.323Z,101372.39
2019-06-26T08:50:41.517Z,101376.04
2019-06-26T08:53:11.000Z,101369.11
2019-06-26T08:55:40.510Z,101367.68
2019-06-26T08:58:10.007Z,101371.58
2019-06-26T09:00:39.476Z,101372.41
2019-06-26T09:03:09.030Z,101375.24
2019-06-26T09:05:47.920Z,101380.91
2019-06-26T09:08:09.832Z,101377.44
2019-06-26T09:10:39.497Z,101377.42
2019-06-26T09:13:09.007Z,101382.13
2019-06-26T09:15:38.780Z,101383.34
2019-06-26T09:18:08.440Z,101378.95
2019-06-26T09:20:41.722Z,101378.61
2019-06-26T09:23:11.331Z,101379.69
2019-06-26T09:25:40.825Z,101376.46
2019-06-26T09:28:10.448Z,101378.28
2019-06-26T09:30:39.936Z,101384.58
2019-06-26T09:33:09.527Z,101376.26
2019-06-26T09:35:39.849Z,101379.36
2019-06-26T09:38:09.438Z,101374.52
2019-06-26T09:40:38.913Z,101382.09
2019-06-26T09:43:08.395Z,101375.37
2019-06-26T09:45:37.963Z,101382.91
2019-06-26T09:48:07.427Z,101377.80
2019-06-26T09:50:36.978Z,101381.84
2019-06-26T09:53:06.599Z,101384.46
2019-06-26T09:55:36.206Z,101374.26
2019-06-26T09:58:05.700Z,101371.00
2019-06-26T10:00:35.309Z,101367.61
2019-06-26T10:03:05.354Z,101372.30
2019-06-26T10:05:34.913Z,101366.63
2019-06-26T10:08:04.388Z,101361.97
2019-06-26T10:10:33.964Z,101369.47
2019-06-26T10:13:03.475Z,101354.47
2019-06-26T10:15:32.926Z,101361.81
2019-06-26T10:18:02.528Z,101362.66
2019-06-26T10:20:32.053Z,101357.80
2019-06-26T10:23:01.610Z,101354.08
2019-06-26T10:25:31.102Z,101361.27
2019-06-26T10:28:00.642Z,101356.40
2019-06-26T10:30:30.222Z,101363.58
2019-06-26T10:32:59.788Z,101363.61
2019-06-26T10:35:29.405Z,101364.64
2019-06-26T10:37:58.959Z,101365.30
2019-06-26T10:40:28.499Z,101368.34
2019-06-26T10:42:57.988Z,101377.13
2019-06-26T10:45:27.530Z,101374.94
2019-06-26T10:47:57.091Z,101381.80
2019-06-26T10:50:26.629Z,101368.23
2019-06-26T10:52:59.360Z,101366.84
2019-06-26T10:55:28.815Z,101365.59
2019-06-26T10:57:58.284Z,101365.00
2019-06-26T11:00:28.093Z,101367.25
2019-06-26T11:02:57.602Z,101363.79
2019-06-26T11:05:27.157Z,101367.78
2019-06-26T11:07:56.647Z,101373.38
2019-06-26T11:10:26.598Z,101368.32
2019-06-26T11:12:56.079Z,101364.85
2019-06-26T11:15:25.814Z,101366.94
2019-06-26T11:17:55.302Z,101374.28
2019-06-26T11:20:25.209Z,101368.61
2019-06-26T11:22:54.700Z,101364.52
2019-06-26T11:25:24.420Z,101370.56
2019-06-26T11:27:53.924Z,101363.62
2019-06-26T11:30:25.249Z,101363.78
2019-06-26T11:32:54.813Z,101370.31
2019-06-26T11:35:24.287Z,101372.58
2019-06-26T11:37:53.807Z,101375.60
2019-06-26T11:40:23.932Z,101374.39
2019-06-26T11:42:53.402Z,101374.88
2019-06-26T11:45:23.776Z,101373.45
2019-06-26T11:47:53.362Z,101363.92
2019-06-26T11:50:23.222Z,101366.95
2019-06-26T11:52:53.632Z,101360.91
2019-06-26T11:55:23.347Z,101359.17
2019-06-26T11:57:52.862Z,101360.61
2019-06-26T12:00:25.463Z,101362.03
2019-06-26T12:02:55.005Z,101363.17
2019-06-26T12:05:24.559Z,101352.67
2019-06-26T12:07:54.121Z,101358.87
2019-06-26T12:10:24.403Z,101354.91
2019-06-26T12:12:53.975Z,101359.84
2019-06-26T12:15:23.964Z,101360.31
2019-06-26T12:17:53.562Z,101359.53
2019-06-26T12:20:23.283Z,101356.98
2019-06-26T12:22:52.775Z,101355.72
2019-06-26T12:25:22.387Z,101356.04
2019-06-26T12:27:51.993Z,101350.80
2019-06-26T12:30:21.824Z,101348.61
2019-06-26T12:33:02.147Z,101341.77
2019-06-26T12:35:22.664Z,101342.13
2019-06-26T12:37:52.153Z,101343.71
2019-06-26T12:40:21.890Z,101344.19
2019-06-26T12:42:54.529Z,101344.34
2019-06-26T12:45:22.832Z,101351.66
2019-06-26T12:47:52.378Z,101351.02
2019-06-26T12:50:35.434Z,101346.72
2019-06-26T12:52:57.194Z,101342.59
2019-06-26T12:55:26.666Z,101340.86
2019-06-26T12:58:11.834Z,101333.20
2019-06-26T13:00:27.970Z,101335.45
2019-06-26T13:02:57.464Z,101334.02
2019-06-26T13:05:27.089Z,101329.41
2019-06-26T13:07:56.624Z,101330.68
2019-06-26T13:10:26.203Z,101323.38
2019-06-26T13:12:55.705Z,101329.09
2019-06-26T13:15:25.361Z,101328.13
2019-06-26T13:17:54.854Z,101322.24
2019-06-26T13:20:24.374Z,101321.46
2019-06-26T13:22:53.858Z,101325.59
2019-06-26T13:25:23.357Z,101325.28
2019-06-26T13:27:52.995Z,101324.95
2019-06-26T13:30:32.973Z,101334.16
2019-06-26T13:33:02.434Z,101334.97
2019-06-26T13:35:31.923Z,101334.97
2019-06-26T13:38:01.482Z,101332.59
2019-06-26T13:40:31.045Z,101337.20
2019-06-26T13:43:02.663Z,101343.40
2019-06-26T13:45:32.135Z,101345.61
2019-06-26T13:48:01.707Z,101341.81
2019-06-26T13:50:31.371Z,101342.11
2019-06-26T13:53:00.884Z,101339.58
2019-06-26T13:55:30.370Z,101347.84
2019-06-26T13:57:59.933Z,101349.12
2019-06-26T14:00:29.478Z,101346.53
2019-06-26T14:02:59.092Z,101341.45
2019-06-26T14:05:29.525Z,101348.29
2019-06-26T14:07:59.268Z,101344.16
2019-06-26T14:10:28.746Z,101343.80
2019-06-26T14:12:58.226Z,101347.48
2019-06-26T14:15:27.852Z,101338.58
2019-06-26T14:17:57.326Z,101335.06
2019-06-26T14:20:27.027Z,101335.22
2019-06-26T14:22:56.497Z,101333.80
2019-06-26T14:25:25.987Z,101332.36
2019-06-26T14:27:55.479Z,101336.50
2019-06-26T14:30:27.782Z,101328.24
2019-06-26T14:32:56.524Z,101329.20
2019-06-26T14:35:26.128Z,101316.47
2019-06-26T14:37:55.638Z,101322.03
2019-06-26T14:40:25.122Z,101326.81
2019-06-26T14:42:54.614Z,101325.37
2019-06-26T14:45:24.172Z,101314.09
2019-06-26T14:47:53.704Z,101320.75
2019-06-26T14:50:23.267Z,101315.20
2019-06-26T14:52:52.747Z,101312.34
2019-06-26T14:55:22.467Z,101313.77
2019-06-26T14:57:52.001Z,101312.49
2019-06-26T15:00:21.965Z,101310.59
2019-06-26T15:02:51.448Z,101314.87
2019-06-26T15:05:21.023Z,101310.27
2019-06-26T15:07:50.575Z,101310.92
2019-06-26T15:10:21.641Z,101305.66
2019-06-26T15:12:51.134Z,101305.66
2019-06-26T15:15:20.661Z,101301.37
2019-06-26T15:17:50.162Z,101298.19
2019-06-26T15:20:19.946Z,101295.17
2019-06-26T15:22:49.428Z,101289.12
2019-06-26T15:25:19.170Z,101285.17
2019-06-26T15:27:48.705Z,101283.58
2019-06-26T15:30:18.436Z,101276.58
2019-06-26T15:32:47.987Z,101281.97
2019-06-26T15:35:17.815Z,101277.36
2019-06-26T15:37:47.367Z,101274.80
2019-06-26T15:40:17.056Z,101269.73
2019-06-26T15:42:48.950Z,101268.92
2019-06-26T15:45:20.881Z,101268.15
2019-06-26T15:47:49.990Z,101267.98
2019-06-26T15:50:19.717Z,101269.42
2019-06-26T15:52:49.253Z,101263.38
2019-06-26T15:55:20.359Z,101265.13
2019-06-26T15:57:49.931Z,101265.75
2019-06-26T16:00:19.602Z,101263.86
2019-06-26T16:02:49.096Z,101259.73
2019-06-26T16:05:21.177Z,101263.06
2019-06-26T16:07:50.939Z,101260.22
2019-06-26T16:10:20.524Z,101258.95
2019-06-26T16:12:56.295Z,101257.53
2019-06-26T16:15:25.842Z,101259.70
2019-06-26T16:18:14.929Z,101261.16
2019-06-26T16:20:48.766Z,101253.02
2019-06-26T16:23:21.437Z,101249.19
2019-06-26T16:25:52.736Z,101255.41
2019-06-26T16:28:22.214Z,101250.58
2019-06-26T16:30:51.816Z,101246.87
2019-06-26T16:33:21.289Z,101254.09
2019-06-26T16:35:52.300Z,101254.33
2019-06-26T16:38:21.889Z,101258.02
2019-06-26T16:40:53.876Z,101256.28
2019-06-26T16:43:22.719Z,101252.31
2019-06-26T16:45:52.212Z,101255.06
2019-06-26T16:48:21.717Z,101256.53
2019-06-26T16:50:51.222Z,101258.33
2019-06-26T16:53:20.704Z,101263.54
2019-06-26T16:55:50.228Z,101259.34
2019-06-26T16:58:19.880Z,101258.40
2019-06-26T17:00:49.385Z,101257.67
2019-06-26T17:03:18.843Z,101253.23
2019-06-26T17:05:48.345Z,101261.56
2019-06-26T17:08:17.832Z,101253.45
2019-06-26T17:10:47.328Z,101263.66
2019-06-26T17:13:16.894Z,101267.07
2019-06-26T17:15:46.383Z,101267.07
2019-06-26T17:18:16.067Z,101265.62
2019-06-26T17:20:45.578Z,101264.18
2019-06-26T17:23:15.067Z,101259.83
2019-06-26T17:25:44.563Z,101265.34
2019-06-26T17:28:16.841Z,101262.50
2019-06-26T17:30:46.335Z,101261.30
2019-06-26T17:33:15.802Z,101254.05
2019-06-26T17:35:45.285Z,101258.20
2019-06-26T17:38:14.839Z,101256.97
2019-06-26T17:40:44.318Z,101265.62
2019-06-26T17:43:13.793Z,101256.11
2019-06-26T17:45:43.907Z,101259.49
2019-06-26T17:48:13.432Z,101258.66
2019-06-26T17:50:42.925Z,101254.36
2019-06-26T17:53:21.622Z,101261.28
2019-06-26T17:55:43.672Z,101264.23
2019-06-26T17:58:13.149Z,101267.45
2019-06-26T18:00:42.683Z,101257.12
2019-06-26T18:03:12.218Z,101264.63
2019-06-26T18:05:42.837Z,101264.95
2019-06-26T18:08:12.435Z,101265.23
2019-06-26T18:10:41.948Z,101264.54
2019-06-26T18:13:11.430Z,101255.80
2019-06-26T18:15:40.921Z,101259.87
2019-06-26T18:18:10.393Z,101258.38
2019-06-26T18:20:39.897Z,101264.92
2019-06-26T18:23:09.369Z,101265.16
2019-06-26T18:25:39.199Z,101267.85
2019-06-26T18:28:08.696Z,101264.20
2019-06-26T18:30:38.239Z,101266.18
2019-06-26T18:33:07.791Z,101261.48
2019-06-26T18:35:37.280Z,101268.09
2019-06-26T18:38:06.892Z,101275.78
2019-06-26T18:40:36.477Z,101279.20
2019-06-26T18:43:06.049Z,101274.88
2019-06-26T18:45:35.640Z,101281.98
2019-06-26T18:48:05.315Z,101276.74
2019-06-26T18:50:34.824Z,101276.14
2019-06-26T18:53:04.395Z,101278.20
2019-06-26T18:55:33.888Z,101281.18
2019-06-26T18:58:03.454Z,101283.48
2019-06-26T19:00:33.019Z,101281.02
2019-06-26T19:03:02.513Z,101288.12
2019-06-26T19:05:31.992Z,101285.77
2019-06-26T19:08:01.494Z,101288.86
2019-06-26T19:10:30.976Z,101289.86
2019-06-26T19:13:00.560Z,101297.86
2019-06-26T19:15:30.031Z,101304.21
2019-06-26T19:17:59.565Z,101315.81
2019-06-26T19:20:29.279Z,101312.50
2019-06-26T19:22:58.865Z,101323.38
2019-06-26T19:25:28.355Z,101323.04
2019-06-26T19:27:57.836Z,101326.83
2019-06-26T19:30:27.312Z,101331.23
2019-06-26T19:32:56.832Z,101333.58
2019-06-26T19:35:26.313Z,101336.24
2019-06-26T19:37:55.783Z,101335.27
2019-06-26T19:40:25.340Z,101343.02
2019-06-26T19:42:54.851Z,101342.95
2019-06-26T19:45:25.029Z,101347.38
2019-06-26T19:47:54.716Z,101355.23
2019-06-26T19:50:30.263Z,101359.03
2019-06-26T19:52:59.763Z,101359.73
2019-06-26T19:55:29.315Z,101360.64
2019-06-26T19:57:58.848Z,101364.38
2019-06-26T20:00:28.348Z,101368.28
2019-06-26T20:02:57.841Z,101370.75
2019-06-26T20:05:27.328Z,101373.59
2019-06-26T20:07:56.811Z,101377.66
2019-06-26T20:10:26.448Z,101384.94
2019-06-26T20:12:55.960Z,101390.33
2019-06-26T20:15:25.496Z,101401.01
2019-06-26T20:17:54.991Z,101404.81
2019-06-26T20:20:24.596Z,101405.59
2019-06-26T20:22:54.200Z,101403.35
2019-06-26T20:25:23.678Z,101409.97
2019-06-26T20:27:56.888Z,101410.89
2019-06-26T20:30:29.098Z,101418.70
2019-06-26T20:32:58.584Z,101413.16
2019-06-26T20:35:28.064Z,101414.92
2019-06-26T20:37:57.549Z,101417.45
2019-06-26T20:40:27.186Z,101426.44
2019-06-26T20:42:56.734Z,101425.32
2019-06-26T20:45:26.300Z,101432.44
2019-06-26T20:47:55.779Z,101433.33
2019-06-26T20:50:25.290Z,101437.62
2019-06-26T20:52:54.825Z,101435.30
2019-06-26T20:55:24.291Z,101439.80
2019-06-26T20:57:53.913Z,101444.89
2019-06-26T21:00:23.357Z,101447.78
2019-06-26T21:02:54.233Z,101444.40
2019-06-26T21:05:24.131Z,101451.72
2019-06-26T21:07:53.636Z,101458.80
2019-06-26T21:10:23.257Z,101457.64
2019-06-26T21:12:52.812Z,101465.73
2019-06-26T21:15:22.290Z,101462.37
2019-06-26T21:17:51.825Z,101464.81
2019-06-26T21:20:21.398Z,101461.84
2019-06-26T21:22:51.021Z,101466.91
2019-06-26T21:25:20.533Z,101462.91
2019-06-26T21:27:50.029Z,101467.39
2019-06-26T21:30:21.406Z,101470.45
2019-06-26T21:32:50.994Z,101474.09
2019-06-26T21:35:20.451Z,101467.87
2019-06-26T21:37:50.047Z,101479.98
2019-06-26T21:40:19.655Z,101481.81
2019-06-26T21:42:49.419Z,101481.84
2019-06-26T21:45:21.665Z,101483.28
2019-06-26T21:47:51.318Z,101483.48
2019-06-26T21:50:21.187Z,101478.06
2019-06-26T21:52:51.189Z,101481.10
2019-06-26T21:55:33.804Z,101490.60
2019-06-26T21:57:52.321Z,101483.77
2019-06-26T22:00:23.523Z,101487.59
2019-06-26T22:02:53.158Z,101490.80
2019-06-26T22:05:22.700Z,101486.59
2019-06-26T22:07:52.266Z,101487.59
2019-06-26T22:10:21.932Z,101494.84
2019-06-26T22:12:51.573Z,101500.27
2019-06-26T22:15:21.230Z,101494.25
2019-06-26T22:17:50.714Z,101492.83
2019-06-26T22:20:20.340Z,101487.41
2019-06-26T22:22:49.904Z,101490.03
2019-06-26T22:25:19.628Z,101492.64
2019-06-26T22:27:49.090Z,101497.06
2019-06-26T22:30:19.032Z,101493.63
2019-06-26T22:32:48.659Z,101499.27
2019-06-26T22:35:18.390Z,101510.91
2019-06-26T22:37:48.081Z,101511.30
2019-06-26T22:40:18.325Z,101513.27
2019-06-26T22:42:47.931Z,101514.69
2019-06-26T22:45:17.555Z,101511.66
2019-06-26T22:47:47.093Z,101509.44
2019-06-26T22:50:16.733Z,101507.84
2019-06-26T22:52:46.205Z,101510.63
2019-06-26T22:55:15.854Z,101514.03
2019-06-26T22:57:45.437Z,101518.84
2019-06-26T23:00:16.297Z,101516.22
2019-06-26T23:02:45.847Z,101514.79
2019-06-26T23:05:15.428Z,101515.80
2019-06-26T23:07:44.994Z,101515.56
2019-06-26T23:10:14.838Z,101518.17
2019-06-26T23:12:44.569Z,101523.91
2019-06-26T23:15:14.373Z,101520.28
2019-06-26T23:17:43.943Z,101526.28
2019-06-26T23:20:13.599Z,101533.11
2019-06-26T23:22:43.190Z,101529.48
2019-06-26T23:25:13.005Z,101526.22
2019-06-26T23:27:42.746Z,101539.66
2019-06-26T23:30:19.763Z,101537.43
2019-06-26T23:32:49.474Z,101544.22
2019-06-26T23:35:21.808Z,101545.41
2019-06-26T23:37:51.302Z,101539.55
2019-06-26T23:40:21.030Z,101542.14
2019-06-26T23:42:50.519Z,101551.73
2019-06-26T23:45:21.632Z,101551.49
2019-06-26T23:47:51.137Z,101552.06
2019-06-26T23:50:20.611Z,101559.87
2019-06-26T23:53:09.465Z,101563.25
2019-06-26T23:55:38.916Z,101562.80
2019-06-26T23:58:08.399Z,101569.77
